Thursday, January 18, 2018, 8:43 PM EST

KPOU, Poughkeepsie Dutchess Cty

Location: Wappingers Falls, NY, United States Lat: 41.633
Local Time: 8:43 PM EST ( 1:43 GMT) Lon: -73.883
Time Zone: US/Eastern Elev: 167 ft

Show me the last for .
Show Decoded

2018-01-18 19:53 METAR KPOU 190053Z 00000KT 8SM CLR M11/M13 A3002 RMK AO2 SLP166 T11061128 =
2018-01-18 18:53 METAR KPOU 182353Z 00000KT 10SM CLR M09/M12 A3000 RMK AO2 SLP159 T10941122 11033
                 21094 53020 =
2018-01-18 17:53 METAR KPOU 182253Z 00000KT 10SM CLR M06/M11 A2998 RMK AO2 SLP152 T10611111 =
2018-01-18 16:53 METAR KPOU 182153Z 35003KT 10SM CLR M04/M11 A2996 RMK AO2 SLP144 T10441111 =
2018-01-18 15:53 METAR KPOU 182053Z 31005KT 10SM CLR M04/M11 A2994 RMK AO2 SLP139 T10391111 55011
                 =
2018-01-18 14:53 METAR KPOU 181953Z 36006KT 10SM CLR M03/M11 A2994 RMK AO2 SLP137 T10331111 =
2018-01-18 13:53 METAR KPOU 181853Z 35004KT 10SM CLR M03/M12 A2995 RMK AO2 SLP143 T10331122 =
2018-01-18 12:53 METAR KPOU 181753Z 32006KT 10SM CLR M05/M13 A2997 RMK AO2 SLP150 T10501128 11044
                 21189 58029 =
2018-01-18 11:53 METAR KPOU 181653Z 01004KT 10SM CLR M06/M12 A3002 RMK AO2 SLP165 T10561122 =
2018-01-18 10:53 METAR KPOU 181553Z 02003KT 10SM CLR M07/M11 A3007 RMK AO2 SLP181 T10671111 =
2018-01-18 09:53 METAR KPOU 181453Z 00000KT 8SM CLR M09/M11 A3006 RMK AO2 SLP179 T10941111 50005
                 =
2018-01-18 08:53 METAR KPOU 181353Z 00000KT 6SM BR CLR M14/M16 A3006 RMK AO2 SLP181 T11441156 =
2018-01-18 07:53 METAR KPOU 181253Z AUTO 00000KT 7SM CLR M18/M20 A3008 RMK AO2 SLP185 T11781200 =
2018-01-18 06:53 METAR KPOU 181153Z AUTO 00000KT 8SM CLR M17/M20 A3004 RMK AO2 SLP173 70012 I6000
                 T11721200 11133 21178 56017 =
2018-01-18 05:53 METAR KPOU 181053Z 00000KT 8SM CLR M17/M19 A3005 RMK AO2 SLP176 T11721194 =
2018-01-18 04:53 METAR KPOU 180953Z 00000KT 8SM CLR M17/M19 A3005 RMK AO2 SLP177 T11721194 =
2018-01-18 03:53 METAR KPOU 180853Z 00000KT 8SM CLR M17/M19 A3009 RMK AO2 SLP190 I3000 T11671194
                 58012 =
2018-01-18 02:53 METAR KPOU 180753Z 00000KT 6SM HZ CLR M16/M19 A3012 RMK AO2 SLP199 T11611189 =
2018-01-18 01:53 METAR KPOU 180653Z 00000KT 5SM BR CLR M16/M17 A3013 RMK AO2 SLP204 I1000
                 T11611172 =
2018-01-18 00:53 METAR KPOU 180553Z 00000KT 6SM BR CLR M14/M16 A3013 RMK AO2 SLP202 I1000 I6000
                 T11391161 11039 21156 58017 =
2018-01-17 23:53 METAR KPOU 180453Z 00000KT 6SM BR CLR M12/M13 A3016 RMK AO2 SLP211 I1000
                 T11171133 410061133 =
2018-01-17 22:53 METAR KPOU 180353Z 00000KT 8SM CLR M10/M12 A3017 RMK AO2 SLP216 T11001122 =
2018-01-17 21:53 METAR KPOU 180253Z 35004KT 10SM SCT033 M07/M11 A3018 RMK AO2 SLP218 T10671111
                 56002 =
2018-01-17 20:53 METAR KPOU 180153Z 35007KT 10SM OVC031 M05/M09 A3018 RMK AO2 SLP220 T10501094 =

Support USWX by starting your Amazon purchase here.